sensor_id;sensor_type;location;lat;lon;timestamp;P1;durP1;ratioP1;P2;durP2;ratioP2
6135;SDS011;24008;42.664;23.372;2023-09-08T00:01:10;21.73;;;16.67;;
6135;SDS011;24008;42.664;23.372;2023-09-08T00:03:38;20.47;;;15.33;;
6135;SDS011;24008;42.664;23.372;2023-09-08T00:06:05;21.10;;;15.87;;
6135;SDS011;24008;42.664;23.372;2023-09-08T00:08:31;17.77;;;15.67;;
6135;SDS011;24008;42.664;23.372;2023-09-08T00:10:58;23.90;;;16.20;;
6135;SDS011;24008;42.664;23.372;2023-09-08T00:13:25;19.67;;;15.90;;
6135;SDS011;24008;42.664;23.372;2023-09-08T00:15:51;19.10;;;16.07;;
6135;SDS011;24008;42.664;23.372;2023-09-08T00:18:18;21.53;;;17.43;;
6135;SDS011;24008;42.664;23.372;2023-09-08T00:20:47;17.47;;;14.13;;
6135;SDS011;24008;42.664;23.372;2023-09-08T00:23:14;15.97;;;12.77;;
6135;SDS011;24008;42.664;23.372;2023-09-08T00:25:40;17.43;;;13.77;;
6135;SDS011;24008;42.664;23.372;2023-09-08T00:28:07;14.10;;;11.03;;
6135;SDS011;24008;42.664;23.372;2023-09-08T00:30:34;13.10;;;10.73;;
6135;SDS011;24008;42.664;23.372;2023-09-08T00:33:01;13.73;;;9.97;;
6135;SDS011;24008;42.664;23.372;2023-09-08T00:35:27;11.87;;;10.10;;
6135;SDS011;24008;42.664;23.372;2023-09-08T00:37:55;10.23;;;7.87;;
6135;SDS011;24008;42.664;23.372;2023-09-08T00:40:24;12.40;;;9.67;;
6135;SDS011;24008;42.664;23.372;2023-09-08T00:43:17;11.23;;;9.97;;
6135;SDS011;24008;42.664;23.372;2023-09-08T00:45:44;17.10;;;9.67;;
6135;SDS011;24008;42.664;23.372;2023-09-08T00:48:11;12.13;;;8.50;;
6135;SDS011;24008;42.664;23.372;2023-09-08T00:50:39;11.83;;;8.37;;
6135;SDS011;24008;42.664;23.372;2023-09-08T00:53:07;11.20;;;8.10;;
6135;SDS011;24008;42.664;23.372;2023-09-08T00:55:35;11.00;;;8.50;;
6135;SDS011;24008;42.664;23.372;2023-09-08T00:58:02;9.00;;;7.80;;
6135;SDS011;24008;42.664;23.372;2023-09-08T01:00:29;8.97;;;7.67;;
6135;SDS011;24008;42.664;23.372;2023-09-08T01:02:57;12.53;;;6.93;;
6135;SDS011;24008;42.664;23.372;2023-09-08T01:05:23;9.77;;;6.57;;
6135;SDS011;24008;42.664;23.372;2023-09-08T01:07:50;9.10;;;7.30;;
6135;SDS011;24008;42.664;23.372;2023-09-08T01:10:19;13.67;;;7.07;;
6135;SDS011;24008;42.664;23.372;2023-09-08T01:12:46;10.07;;;7.00;;
6135;SDS011;24008;42.664;23.372;2023-09-08T01:15:13;8.20;;;7.17;;
6135;SDS011;24008;42.664;23.372;2023-09-08T01:17:40;9.40;;;6.60;;
6135;SDS011;24008;42.664;23.372;2023-09-08T01:20:08;8.93;;;6.50;;
6135;SDS011;24008;42.664;23.372;2023-09-08T01:22:50;8.30;;;7.17;;
6135;SDS011;24008;42.664;23.372;2023-09-08T01:25:29;9.60;;;7.10;;
6135;SDS011;24008;42.664;23.372;2023-09-08T01:27:58;13.70;;;7.73;;
6135;SDS011;24008;42.664;23.372;2023-09-08T01:30:27;12.20;;;7.57;;
6135;SDS011;24008;42.664;23.372;2023-09-08T01:32:57;11.77;;;8.37;;
6135;SDS011;24008;42.664;23.372;2023-09-08T01:35:25;9.87;;;7.93;;
6135;SDS011;24008;42.664;23.372;2023-09-08T01:37:52;13.03;;;8.23;;
6135;SDS011;24008;42.664;23.372;2023-09-08T01:40:19;10.07;;;8.47;;
6135;SDS011;24008;42.664;23.372;2023-09-08T01:42:47;13.33;;;8.50;;
6135;SDS011;24008;42.664;23.372;2023-09-08T01:45:14;10.30;;;7.90;;
6135;SDS011;24008;42.664;23.372;2023-09-08T01:47:41;12.03;;;8.33;;
6135;SDS011;24008;42.664;23.372;2023-09-08T01:50:08;9.20;;;7.93;;
6135;SDS011;24008;42.664;23.372;2023-09-08T01:52:35;13.37;;;8.33;;
6135;SDS011;24008;42.664;23.372;2023-09-08T01:55:02;11.03;;;8.40;;
6135;SDS011;24008;42.664;23.372;2023-09-08T01:57:29;11.63;;;8.37;;
6135;SDS011;24008;42.664;23.372;2023-09-08T01:59:57;11.63;;;8.53;;
6135;SDS011;24008;42.664;23.372;2023-09-08T02:02:24;14.20;;;8.30;;
6135;SDS011;24008;42.664;23.372;2023-09-08T02:04:50;11.00;;;8.57;;
6135;SDS011;24008;42.664;23.372;2023-09-08T02:07:17;11.60;;;8.83;;
6135;SDS011;24008;42.664;23.372;2023-09-08T02:09:44;9.17;;;8.17;;
6135;SDS011;24008;42.664;23.372;2023-09-08T02:12:09;12.40;;;8.30;;
6135;SDS011;24008;42.664;23.372;2023-09-08T02:14:36;9.70;;;8.70;;
6135;SDS011;24008;42.664;23.372;2023-09-08T02:17:05;9.90;;;8.77;;
6135;SDS011;24008;42.664;23.372;2023-09-08T02:19:32;12.87;;;8.70;;
6135;SDS011;24008;42.664;23.372;2023-09-08T02:21:59;10.67;;;9.40;;
6135;SDS011;24008;42.664;23.372;2023-09-08T02:24:25;13.93;;;9.70;;
6135;SDS011;24008;42.664;23.372;2023-09-08T02:26:52;10.83;;;8.60;;
6135;SDS011;24008;42.664;23.372;2023-09-08T02:29:19;11.73;;;9.57;;
6135;SDS011;24008;42.664;23.372;2023-09-08T02:31:46;13.23;;;9.67;;
6135;SDS011;24008;42.664;23.372;2023-09-08T02:34:14;14.53;;;9.53;;
6135;SDS011;24008;42.664;23.372;2023-09-08T02:36:41;12.77;;;9.17;;
6135;SDS011;24008;42.664;23.372;2023-09-08T02:39:08;12.53;;;9.27;;
6135;SDS011;24008;42.664;23.372;2023-09-08T02:41:36;11.60;;;9.80;;
6135;SDS011;24008;42.664;23.372;2023-09-08T02:44:02;12.47;;;9.33;;
6135;SDS011;24008;42.664;23.372;2023-09-08T02:46:29;13.33;;;9.57;;
6135;SDS011;24008;42.664;23.372;2023-09-08T02:48:56;14.10;;;9.73;;
6135;SDS011;24008;42.664;23.372;2023-09-08T02:51:24;13.27;;;10.07;;
6135;SDS011;24008;42.664;23.372;2023-09-08T02:53:51;11.97;;;10.23;;
6135;SDS011;24008;42.664;23.372;2023-09-08T02:56:17;17.43;;;10.67;;
6135;SDS011;24008;42.664;23.372;2023-09-08T02:58:44;16.80;;;10.00;;
6135;SDS011;24008;42.664;23.372;2023-09-08T03:01:12;14.80;;;10.33;;
6135;SDS011;24008;42.664;23.372;2023-09-08T03:03:40;17.30;;;11.23;;
6135;SDS011;24008;42.664;23.372;2023-09-08T03:06:07;15.80;;;10.53;;
6135;SDS011;24008;42.664;23.372;2023-09-08T03:08:36;15.00;;;11.10;;
6135;SDS011;24008;42.664;23.372;2023-09-08T03:11:03;15.40;;;11.03;;
6135;SDS011;24008;42.664;23.372;2023-09-08T03:13:30;13.60;;;11.20;;
6135;SDS011;24008;42.664;23.372;2023-09-08T03:16:01;21.20;;;10.67;;
6135;SDS011;24008;42.664;23.372;2023-09-08T03:18:29;13.47;;;11.03;;
6135;SDS011;24008;42.664;23.372;2023-09-08T03:20:57;14.17;;;11.30;;
6135;SDS011;24008;42.664;23.372;2023-09-08T03:23:24;13.47;;;11.00;;
6135;SDS011;24008;42.664;23.372;2023-09-08T03:25:52;15.40;;;12.03;;
6135;SDS011;24008;42.664;23.372;2023-09-08T03:28:19;16.53;;;11.90;;
6135;SDS011;24008;42.664;23.372;2023-09-08T03:30:46;15.03;;;12.10;;
6135;SDS011;24008;42.664;23.372;2023-09-08T03:33:12;14.60;;;11.87;;
6135;SDS011;24008;42.664;23.372;2023-09-08T03:35:39;14.80;;;11.70;;
6135;SDS011;24008;42.664;23.372;2023-09-08T03:38:06;19.50;;;11.23;;
6135;SDS011;24008;42.664;23.372;2023-09-08T03:40:33;16.63;;;12.03;;
6135;SDS011;24008;42.664;23.372;2023-09-08T03:43:01;14.90;;;11.70;;
6135;SDS011;24008;42.664;23.372;2023-09-08T03:45:27;15.13;;;11.30;;
6135;SDS011;24008;42.664;23.372;2023-09-08T03:47:54;17.93;;;13.57;;
6135;SDS011;24008;42.664;23.372;2023-09-08T03:50:21;14.60;;;11.50;;
6135;SDS011;24008;42.664;23.372;2023-09-08T03:52:48;16.23;;;11.63;;
6135;SDS011;24008;42.664;23.372;2023-09-08T03:55:14;16.27;;;11.60;;
6135;SDS011;24008;42.664;23.372;2023-09-08T03:57:42;17.53;;;12.27;;
6135;SDS011;24008;42.664;23.372;2023-09-08T04:00:10;16.53;;;12.20;;
6135;SDS011;24008;42.664;23.372;2023-09-08T04:02:47;14.70;;;12.73;;
6135;SDS011;24008;42.664;23.372;2023-09-08T04:05:15;17.90;;;12.63;;
6135;SDS011;24008;42.664;23.372;2023-09-08T04:07:42;17.83;;;11.77;;
6135;SDS011;24008;42.664;23.372;2023-09-08T04:10:09;13.70;;;11.53;;
6135;SDS011;24008;42.664;23.372;2023-09-08T04:12:36;15.47;;;12.83;;
6135;SDS011;24008;42.664;23.372;2023-09-08T04:15:03;14.63;;;11.70;;
6135;SDS011;24008;42.664;23.372;2023-09-08T04:17:31;14.77;;;12.20;;
6135;SDS011;24008;42.664;23.372;2023-09-08T04:19:58;20.53;;;13.00;;
6135;SDS011;24008;42.664;23.372;2023-09-08T04:22:25;23.53;;;15.73;;
6135;SDS011;24008;42.664;23.372;2023-09-08T04:24:52;19.00;;;13.00;;
6135;SDS011;24008;42.664;23.372;2023-09-08T04:27:19;15.93;;;12.23;;
6135;SDS011;24008;42.664;23.372;2023-09-08T04:29:46;15.77;;;12.20;;
6135;SDS011;24008;42.664;23.372;2023-09-08T04:32:12;17.93;;;12.23;;
6135;SDS011;24008;42.664;23.372;2023-09-08T04:34:41;17.20;;;11.77;;
6135;SDS011;24008;42.664;23.372;2023-09-08T04:37:08;17.10;;;12.40;;
6135;SDS011;24008;42.664;23.372;2023-09-08T04:39:35;18.97;;;12.50;;
6135;SDS011;24008;42.664;23.372;2023-09-08T04:42:03;13.93;;;11.87;;
6135;SDS011;24008;42.664;23.372;2023-09-08T04:44:30;13.03;;;11.10;;
6135;SDS011;24008;42.664;23.372;2023-09-08T04:46:57;16.90;;;11.77;;
6135;SDS011;24008;42.664;23.372;2023-09-08T04:49:24;15.77;;;11.93;;
6135;SDS011;24008;42.664;23.372;2023-09-08T04:51:52;13.57;;;10.53;;
6135;SDS011;24008;42.664;23.372;2023-09-08T04:54:19;15.33;;;11.30;;
6135;SDS011;24008;42.664;23.372;2023-09-08T04:56:47;14.93;;;11.00;;
6135;SDS011;24008;42.664;23.372;2023-09-08T04:59:14;17.57;;;11.50;;
6135;SDS011;24008;42.664;23.372;2023-09-08T05:01:40;15.93;;;11.70;;
6135;SDS011;24008;42.664;23.372;2023-09-08T05:04:08;17.70;;;13.20;;
6135;SDS011;24008;42.664;23.372;2023-09-08T05:06:35;12.83;;;10.10;;
6135;SDS011;24008;42.664;23.372;2023-09-08T05:09:03;14.60;;;10.57;;
6135;SDS011;24008;42.664;23.372;2023-09-08T05:11:32;17.17;;;10.60;;
6135;SDS011;24008;42.664;23.372;2023-09-08T05:13:58;13.70;;;9.67;;
6135;SDS011;24008;42.664;23.372;2023-09-08T05:16:25;14.13;;;9.13;;
6135;SDS011;24008;42.664;23.372;2023-09-08T05:19:02;13.35;;;8.45;;
6135;SDS011;24008;42.664;23.372;2023-09-08T05:21:29;12.73;;;8.25;;
6135;SDS011;24008;42.664;23.372;2023-09-08T05:23:56;10.05;;;7.80;;
6135;SDS011;24008;42.664;23.372;2023-09-08T05:26:25;12.90;;;8.38;;
6135;SDS011;24008;42.664;23.372;2023-09-08T05:28:52;9.65;;;7.45;;
6135;SDS011;24008;42.664;23.372;2023-09-08T05:31:18;13.35;;;7.93;;
6135;SDS011;24008;42.664;23.372;2023-09-08T05:33:45;11.45;;;7.90;;
6135;SDS011;24008;42.664;23.372;2023-09-08T05:36:12;9.90;;;7.45;;
6135;SDS011;24008;42.664;23.372;2023-09-08T05:38:39;13.70;;;7.03;;
6135;SDS011;24008;42.664;23.372;2023-09-08T05:41:05;10.38;;;8.25;;
6135;SDS011;24008;42.664;23.372;2023-09-08T05:43:33;9.30;;;7.30;;
6135;SDS011;24008;42.664;23.372;2023-09-08T05:46:01;9.60;;;7.22;;
6135;SDS011;24008;42.664;23.372;2023-09-08T05:48:29;10.07;;;7.55;;
6135;SDS011;24008;42.664;23.372;2023-09-08T05:50:55;9.73;;;7.38;;
6135;SDS011;24008;42.664;23.372;2023-09-08T05:53:22;9.20;;;7.53;;
6135;SDS011;24008;42.664;23.372;2023-09-08T05:55:49;9.77;;;6.70;;
6135;SDS011;24008;42.664;23.372;2023-09-08T05:58:16;7.93;;;6.72;;
6135;SDS011;24008;42.664;23.372;2023-09-08T06:00:44;7.95;;;6.63;;
6135;SDS011;24008;42.664;23.372;2023-09-08T06:03:11;10.75;;;6.60;;
6135;SDS011;24008;42.664;23.372;2023-09-08T06:05:37;10.68;;;6.50;;
6135;SDS011;24008;42.664;23.372;2023-09-08T06:08:04;15.95;;;7.68;;
6135;SDS011;24008;42.664;23.372;2023-09-08T06:10:32;7.55;;;6.30;;
6135;SDS011;24008;42.664;23.372;2023-09-08T06:12:58;9.48;;;6.88;;
6135;SDS011;24008;42.664;23.372;2023-09-08T06:15:26;10.65;;;6.60;;
6135;SDS011;24008;42.664;23.372;2023-09-08T06:17:54;8.48;;;5.90;;
6135;SDS011;24008;42.664;23.372;2023-09-08T06:20:21;6.00;;;5.30;;
6135;SDS011;24008;42.664;23.372;2023-09-08T06:22:50;9.18;;;5.63;;
6135;SDS011;24008;42.664;23.372;2023-09-08T06:25:16;7.85;;;6.15;;
6135;SDS011;24008;42.664;23.372;2023-09-08T06:27:43;7.70;;;5.30;;
6135;SDS011;24008;42.664;23.372;2023-09-08T06:30:11;6.55;;;5.00;;
6135;SDS011;24008;42.664;23.372;2023-09-08T06:32:39;10.98;;;5.75;;
6135;SDS011;24008;42.664;23.372;2023-09-08T06:35:08;7.20;;;5.10;;
6135;SDS011;24008;42.664;23.372;2023-09-08T06:37:35;6.55;;;5.00;;
6135;SDS011;24008;42.664;23.372;2023-09-08T06:40:03;6.88;;;5.13;;
6135;SDS011;24008;42.664;23.372;2023-09-08T06:42:30;6.85;;;5.35;;
6135;SDS011;24008;42.664;23.372;2023-09-08T06:44:57;5.53;;;4.65;;
6135;SDS011;24008;42.664;23.372;2023-09-08T06:47:24;7.03;;;4.60;;
6135;SDS011;24008;42.664;23.372;2023-09-08T06:49:52;7.07;;;4.80;;
6135;SDS011;24008;42.664;23.372;2023-09-08T06:52:20;7.15;;;4.78;;
6135;SDS011;24008;42.664;23.372;2023-09-08T06:54:47;6.97;;;4.93;;
6135;SDS011;24008;42.664;23.372;2023-09-08T06:57:13;7.25;;;4.50;;
6135;SDS011;24008;42.664;23.372;2023-09-08T06:59:41;10.57;;;4.75;;
6135;SDS011;24008;42.664;23.372;2023-09-08T07:02:08;7.47;;;4.53;;
6135;SDS011;24008;42.664;23.372;2023-09-08T07:04:34;8.18;;;4.45;;
6135;SDS011;24008;42.664;23.372;2023-09-08T07:07:01;5.35;;;4.82;;
6135;SDS011;24008;42.664;23.372;2023-09-08T07:12:02;7.55;;;4.55;;
6135;SDS011;24008;42.664;23.372;2023-09-08T07:14:30;7.20;;;4.75;;
6135;SDS011;24008;42.664;23.372;2023-09-08T07:16:57;4.40;;;4.00;;
6135;SDS011;24008;42.664;23.372;2023-09-08T07:19:24;5.53;;;4.00;;
6135;SDS011;24008;42.664;23.372;2023-09-08T07:21:52;6.88;;;4.50;;
6135;SDS011;24008;42.664;23.372;2023-09-08T07:24:19;5.38;;;4.13;;
6135;SDS011;24008;42.664;23.372;2023-09-08T07:26:47;7.25;;;4.05;;
6135;SDS011;24008;42.664;23.372;2023-09-08T07:29:15;7.40;;;4.30;;
6135;SDS011;24008;42.664;23.372;2023-09-08T07:31:43;7.13;;;4.40;;
6135;SDS011;24008;42.664;23.372;2023-09-08T07:34:09;4.30;;;3.90;;
6135;SDS011;24008;42.664;23.372;2023-09-08T07:36:36;5.05;;;3.92;;
6135;SDS011;24008;42.664;23.372;2023-09-08T07:39:03;7.03;;;4.80;;
6135;SDS011;24008;42.664;23.372;2023-09-08T07:41:30;6.97;;;4.57;;
6135;SDS011;24008;42.664;23.372;2023-09-08T07:43:58;5.47;;;4.10;;
6135;SDS011;24008;42.664;23.372;2023-09-08T07:46:25;5.85;;;4.15;;
6135;SDS011;24008;42.664;23.372;2023-09-08T07:48:52;6.15;;;4.45;;
6135;SDS011;24008;42.664;23.372;2023-09-08T07:51:19;10.02;;;4.80;;
6135;SDS011;24008;42.664;23.372;2023-09-08T07:53:46;5.30;;;4.32;;
6135;SDS011;24008;42.664;23.372;2023-09-08T07:56:12;5.40;;;4.32;;
6135;SDS011;24008;42.664;23.372;2023-09-08T07:58:39;7.35;;;4.78;;
6135;SDS011;24008;42.664;23.372;2023-09-08T08:01:07;6.95;;;5.32;;
6135;SDS011;24008;42.664;23.372;2023-09-08T08:03:34;8.48;;;4.82;;
6135;SDS011;24008;42.664;23.372;2023-09-08T08:06:01;6.10;;;4.80;;
6135;SDS011;24008;42.664;23.372;2023-09-08T08:08:28;7.32;;;4.70;;
6135;SDS011;24008;42.664;23.372;2023-09-08T08:10:55;5.07;;;4.57;;
6135;SDS011;24008;42.664;23.372;2023-09-08T08:13:22;7.95;;;4.88;;
6135;SDS011;24008;42.664;23.372;2023-09-08T08:15:49;4.97;;;4.00;;
6135;SDS011;24008;42.664;23.372;2023-09-08T08:18:17;6.82;;;4.65;;
6135;SDS011;24008;42.664;23.372;2023-09-08T08:20:44;4.70;;;4.10;;
6135;SDS011;24008;42.664;23.372;2023-09-08T08:23:10;6.13;;;4.43;;
6135;SDS011;24008;42.664;23.372;2023-09-08T08:25:38;6.18;;;4.13;;
6135;SDS011;24008;42.664;23.372;2023-09-08T08:28:04;8.43;;;4.00;;
6135;SDS011;24008;42.664;23.372;2023-09-08T08:30:31;7.70;;;4.18;;
6135;SDS011;24008;42.664;23.372;2023-09-08T08:32:58;4.75;;;3.75;;
6135;SDS011;24008;42.664;23.372;2023-09-08T08:35:27;5.88;;;4.35;;
6135;SDS011;24008;42.664;23.372;2023-09-08T08:37:54;6.35;;;3.70;;
6135;SDS011;24008;42.664;23.372;2023-09-08T08:40:20;8.88;;;4.07;;
6135;SDS011;24008;42.664;23.372;2023-09-08T08:42:53;4.55;;;4.07;;
6135;SDS011;24008;42.664;23.372;2023-09-08T08:45:21;5.85;;;4.35;;
6135;SDS011;24008;42.664;23.372;2023-09-08T08:47:49;4.28;;;3.88;;
6135;SDS011;24008;42.664;23.372;2023-09-08T08:50:16;5.65;;;3.95;;
6135;SDS011;24008;42.664;23.372;2023-09-08T08:52:45;5.43;;;4.03;;
6135;SDS011;24008;42.664;23.372;2023-09-08T08:55:13;6.72;;;3.92;;
6135;SDS011;24008;42.664;23.372;2023-09-08T08:57:40;6.28;;;3.80;;
6135;SDS011;24008;42.664;23.372;2023-09-08T09:00:09;10.25;;;4.40;;
6135;SDS011;24008;42.664;23.372;2023-09-08T09:02:39;4.60;;;3.92;;
6135;SDS011;24008;42.664;23.372;2023-09-08T09:05:07;5.72;;;4.47;;
6135;SDS011;24008;42.664;23.372;2023-09-08T09:07:37;6.40;;;4.25;;
6135;SDS011;24008;42.664;23.372;2023-09-08T09:10:06;5.93;;;4.00;;
6135;SDS011;24008;42.664;23.372;2023-09-08T09:12:33;7.53;;;4.28;;
6135;SDS011;24008;42.664;23.372;2023-09-08T09:15:02;7.78;;;3.97;;
6135;SDS011;24008;42.664;23.372;2023-09-08T09:17:30;4.80;;;4.30;;
6135;SDS011;24008;42.664;23.372;2023-09-08T09:20:14;8.48;;;4.43;;
6135;SDS011;24008;42.664;23.372;2023-09-08T09:22:42;4.90;;;4.40;;
6135;SDS011;24008;42.664;23.372;2023-09-08T09:25:11;6.55;;;4.35;;
6135;SDS011;24008;42.664;23.372;2023-09-08T09:27:49;5.05;;;4.43;;
6135;SDS011;24008;42.664;23.372;2023-09-08T09:30:17;6.28;;;4.18;;
6135;SDS011;24008;42.664;23.372;2023-09-08T09:32:44;7.25;;;4.32;;
6135;SDS011;24008;42.664;23.372;2023-09-08T09:35:11;6.43;;;4.18;;
6135;SDS011;24008;42.664;23.372;2023-09-08T09:37:40;4.63;;;4.22;;
6135;SDS011;24008;42.664;23.372;2023-09-08T09:40:07;7.75;;;4.78;;
6135;SDS011;24008;42.664;23.372;2023-09-08T09:42:38;7.90;;;4.32;;
6135;SDS011;24008;42.664;23.372;2023-09-08T09:45:06;8.77;;;4.20;;
6135;SDS011;24008;42.664;23.372;2023-09-08T09:47:34;5.28;;;4.20;;
6135;SDS011;24008;42.664;23.372;2023-09-08T09:50:01;8.32;;;4.72;;
6135;SDS011;24008;42.664;23.372;2023-09-08T09:52:28;4.68;;;3.92;;
6135;SDS011;24008;42.664;23.372;2023-09-08T09:54:56;7.63;;;4.13;;
6135;SDS011;24008;42.664;23.372;2023-09-08T09:57:25;4.60;;;4.20;;
6135;SDS011;24008;42.664;23.372;2023-09-08T09:59:54;6.25;;;4.50;;
6135;SDS011;24008;42.664;23.372;2023-09-08T10:02:24;5.25;;;4.60;;
6135;SDS011;24008;42.664;23.372;2023-09-08T10:04:53;5.88;;;4.97;;
6135;SDS011;24008;42.664;23.372;2023-09-08T10:07:19;8.73;;;4.93;;
6135;SDS011;24008;42.664;23.372;2023-09-08T10:09:47;7.43;;;4.47;;
6135;SDS011;24008;42.664;23.372;2023-09-08T10:12:14;5.40;;;4.65;;
6135;SDS011;24008;42.664;23.372;2023-09-08T10:14:44;9.25;;;5.45;;
6135;SDS011;24008;42.664;23.372;2023-09-08T10:17:18;6.00;;;4.63;;
6135;SDS011;24008;42.664;23.372;2023-09-08T10:19:53;6.28;;;4.47;;
6135;SDS011;24008;42.664;23.372;2023-09-08T10:22:23;9.13;;;4.55;;
6135;SDS011;24008;42.664;23.372;2023-09-08T10:24:56;7.88;;;4.78;;
6135;SDS011;24008;42.664;23.372;2023-09-08T10:27:28;10.05;;;5.00;;
6135;SDS011;24008;42.664;23.372;2023-09-08T10:29:57;6.25;;;4.97;;
6135;SDS011;24008;42.664;23.372;2023-09-08T10:32:29;10.63;;;5.03;;
6135;SDS011;24008;42.664;23.372;2023-09-08T10:34:58;13.38;;;5.20;;
6135;SDS011;24008;42.664;23.372;2023-09-08T10:37:28;8.40;;;4.55;;
6135;SDS011;24008;42.664;23.372;2023-09-08T10:39:55;8.18;;;4.90;;
6135;SDS011;24008;42.664;23.372;2023-09-08T10:42:23;5.07;;;4.40;;
6135;SDS011;24008;42.664;23.372;2023-09-08T10:44:57;5.38;;;4.85;;
6135;SDS011;24008;42.664;23.372;2023-09-08T10:47:32;7.05;;;5.18;;
6135;SDS011;24008;42.664;23.372;2023-09-08T10:50:06;5.30;;;4.63;;
6135;SDS011;24008;42.664;23.372;2023-09-08T10:52:34;5.85;;;4.47;;
6135;SDS011;24008;42.664;23.372;2023-09-08T10:55:02;7.45;;;5.00;;
6135;SDS011;24008;42.664;23.372;2023-09-08T10:57:31;5.88;;;4.93;;
6135;SDS011;24008;42.664;23.372;2023-09-08T11:00:01;8.43;;;4.35;;
6135;SDS011;24008;42.664;23.372;2023-09-08T11:02:35;7.65;;;4.97;;
6135;SDS011;24008;42.664;23.372;2023-09-08T11:05:04;7.80;;;5.15;;
6135;SDS011;24008;42.664;23.372;2023-09-08T11:07:34;6.80;;;5.20;;
6135;SDS011;24008;42.664;23.372;2023-09-08T11:10:01;5.32;;;4.82;;
6135;SDS011;24008;42.664;23.372;2023-09-08T11:12:30;5.85;;;4.80;;
6135;SDS011;24008;42.664;23.372;2023-09-08T11:14:57;9.52;;;5.15;;
6135;SDS011;24008;42.664;23.372;2023-09-08T11:17:26;7.97;;;4.70;;
6135;SDS011;24008;42.664;23.372;2023-09-08T11:19:54;8.43;;;5.47;;
6135;SDS011;24008;42.664;23.372;2023-09-08T11:22:22;8.50;;;5.30;;
6135;SDS011;24008;42.664;23.372;2023-09-08T11:24:50;6.85;;;5.25;;
6135;SDS011;24008;42.664;23.372;2023-09-08T11:27:17;6.63;;;5.18;;
6135;SDS011;24008;42.664;23.372;2023-09-08T11:29:44;5.55;;;4.53;;
6135;SDS011;24008;42.664;23.372;2023-09-08T11:32:11;8.55;;;4.80;;
6135;SDS011;24008;42.664;23.372;2023-09-08T11:34:38;5.15;;;4.43;;
6135;SDS011;24008;42.664;23.372;2023-09-08T11:37:09;8.85;;;5.47;;
6135;SDS011;24008;42.664;23.372;2023-09-08T11:39:38;5.45;;;4.88;;
6135;SDS011;24008;42.664;23.372;2023-09-08T11:42:05;6.28;;;5.20;;
6135;SDS011;24008;42.664;23.372;2023-09-08T11:44:33;5.80;;;4.68;;
6135;SDS011;24008;42.664;23.372;2023-09-08T11:47:01;7.72;;;4.60;;
6135;SDS011;24008;42.664;23.372;2023-09-08T11:49:33;8.30;;;5.03;;
6135;SDS011;24008;42.664;23.372;2023-09-08T11:52:00;9.20;;;5.50;;
6135;SDS011;24008;42.664;23.372;2023-09-08T11:54:29;7.70;;;4.72;;
6135;SDS011;24008;42.664;23.372;2023-09-08T11:56:56;5.10;;;4.57;;
6135;SDS011;24008;42.664;23.372;2023-09-08T11:59:24;6.60;;;5.10;;
6135;SDS011;24008;42.664;23.372;2023-09-08T12:01:52;6.95;;;4.63;;
6135;SDS011;24008;42.664;23.372;2023-09-08T12:04:19;6.03;;;5.18;;
6135;SDS011;24008;42.664;23.372;2023-09-08T12:06:46;13.25;;;6.15;;
6135;SDS011;24008;42.664;23.372;2023-09-08T12:09:13;6.13;;;4.75;;
6135;SDS011;24008;42.664;23.372;2023-09-08T12:11:43;7.63;;;5.35;;
6135;SDS011;24008;42.664;23.372;2023-09-08T12:14:10;6.65;;;4.82;;
6135;SDS011;24008;42.664;23.372;2023-09-08T12:16:38;5.95;;;5.35;;
6135;SDS011;24008;42.664;23.372;2023-09-08T12:19:05;7.18;;;5.38;;
6135;SDS011;24008;42.664;23.372;2023-09-08T12:21:34;9.25;;;5.10;;
6135;SDS011;24008;42.664;23.372;2023-09-08T12:24:18;9.95;;;5.75;;
6135;SDS011;24008;42.664;23.372;2023-09-08T12:26:46;6.53;;;5.15;;
6135;SDS011;24008;42.664;23.372;2023-09-08T12:29:13;7.85;;;5.15;;
6135;SDS011;24008;42.664;23.372;2023-09-08T12:31:40;9.68;;;5.18;;
6135;SDS011;24008;42.664;23.372;2023-09-08T12:34:07;5.85;;;5.18;;
6135;SDS011;24008;42.664;23.372;2023-09-08T12:36:34;8.13;;;5.10;;
6135;SDS011;24008;42.664;23.372;2023-09-08T12:39:03;9.32;;;5.90;;
6135;SDS011;24008;42.664;23.372;2023-09-08T12:41:31;9.38;;;5.65;;
6135;SDS011;24008;42.664;23.372;2023-09-08T12:43:59;7.85;;;5.10;;
6135;SDS011;24008;42.664;23.372;2023-09-08T12:46:25;7.65;;;5.93;;
6135;SDS011;24008;42.664;23.372;2023-09-08T12:48:52;7.45;;;5.68;;
6135;SDS011;24008;42.664;23.372;2023-09-08T12:51:19;6.40;;;5.20;;
6135;SDS011;24008;42.664;23.372;2023-09-08T12:53:45;8.90;;;6.10;;
6135;SDS011;24008;42.664;23.372;2023-09-08T12:56:12;6.80;;;5.28;;
6135;SDS011;24008;42.664;23.372;2023-09-08T12:58:39;7.88;;;5.18;;
6135;SDS011;24008;42.664;23.372;2023-09-08T13:01:07;6.15;;;5.38;;
6135;SDS011;24008;42.664;23.372;2023-09-08T13:03:34;7.55;;;5.15;;
6135;SDS011;24008;42.664;23.372;2023-09-08T13:06:00;6.15;;;4.97;;
6135;SDS011;24008;42.664;23.372;2023-09-08T13:08:27;11.48;;;6.07;;
6135;SDS011;24008;42.664;23.372;2023-09-08T13:10:54;6.30;;;5.55;;
6135;SDS011;24008;42.664;23.372;2023-09-08T13:13:20;11.52;;;5.55;;
6135;SDS011;24008;42.664;23.372;2023-09-08T13:15:47;6.50;;;4.90;;
6135;SDS011;24008;42.664;23.372;2023-09-08T13:18:16;5.80;;;4.72;;
6135;SDS011;24008;42.664;23.372;2023-09-08T13:20:42;8.55;;;5.55;;
6135;SDS011;24008;42.664;23.372;2023-09-08T13:23:09;6.00;;;5.40;;
6135;SDS011;24008;42.664;23.372;2023-09-08T13:25:36;6.40;;;4.90;;
6135;SDS011;24008;42.664;23.372;2023-09-08T13:28:03;6.90;;;5.90;;
6135;SDS011;24008;42.664;23.372;2023-09-08T13:30:30;8.50;;;5.07;;
6135;SDS011;24008;42.664;23.372;2023-09-08T13:32:56;7.07;;;5.43;;
6135;SDS011;24008;42.664;23.372;2023-09-08T13:35:24;8.70;;;5.45;;
6135;SDS011;24008;42.664;23.372;2023-09-08T13:37:51;5.88;;;5.25;;
6135;SDS011;24008;42.664;23.372;2023-09-08T13:40:18;9.38;;;5.40;;
6135;SDS011;24008;42.664;23.372;2023-09-08T13:42:45;7.60;;;5.03;;
6135;SDS011;24008;42.664;23.372;2023-09-08T13:45:12;5.80;;;5.20;;
6135;SDS011;24008;42.664;23.372;2023-09-08T13:47:39;6.80;;;5.72;;
6135;SDS011;24008;42.664;23.372;2023-09-08T13:50:06;7.45;;;5.18;;
6135;SDS011;24008;42.664;23.372;2023-09-08T13:52:35;7.78;;;5.43;;
6135;SDS011;24008;42.664;23.372;2023-09-08T13:55:04;6.50;;;5.30;;
6135;SDS011;24008;42.664;23.372;2023-09-08T13:57:31;5.68;;;4.80;;
6135;SDS011;24008;42.664;23.372;2023-09-08T13:59:58;9.27;;;5.70;;
6135;SDS011;24008;42.664;23.372;2023-09-08T14:02:25;6.38;;;5.15;;
6135;SDS011;24008;42.664;23.372;2023-09-08T14:04:52;8.27;;;5.55;;
6135;SDS011;24008;42.664;23.372;2023-09-08T14:07:18;7.85;;;4.93;;
6135;SDS011;24008;42.664;23.372;2023-09-08T14:09:46;5.72;;;5.22;;
6135;SDS011;24008;42.664;23.372;2023-09-08T14:12:13;6.53;;;5.60;;
6135;SDS011;24008;42.664;23.372;2023-09-08T14:14:40;7.50;;;5.22;;
6135;SDS011;24008;42.664;23.372;2023-09-08T14:17:07;6.22;;;4.97;;
6135;SDS011;24008;42.664;23.372;2023-09-08T14:19:33;7.05;;;5.22;;
6135;SDS011;24008;42.664;23.372;2023-09-08T14:22:00;7.40;;;5.50;;
6135;SDS011;24008;42.664;23.372;2023-09-08T14:24:27;7.22;;;5.28;;
6135;SDS011;24008;42.664;23.372;2023-09-08T14:26:55;6.43;;;4.95;;
6135;SDS011;24008;42.664;23.372;2023-09-08T14:29:22;6.93;;;5.30;;
6135;SDS011;24008;42.664;23.372;2023-09-08T14:31:49;7.90;;;5.65;;
6135;SDS011;24008;42.664;23.372;2023-09-08T14:34:15;5.40;;;4.90;;
6135;SDS011;24008;42.664;23.372;2023-09-08T14:36:42;8.90;;;5.30;;
6135;SDS011;24008;42.664;23.372;2023-09-08T14:39:10;7.80;;;5.18;;
6135;SDS011;24008;42.664;23.372;2023-09-08T14:41:36;5.85;;;5.00;;
6135;SDS011;24008;42.664;23.372;2023-09-08T14:44:04;7.60;;;5.20;;
6135;SDS011;24008;42.664;23.372;2023-09-08T14:46:31;8.38;;;5.03;;